Racecast

Saddleback Cup Challenge

Trabuco Hills High School · 3218m · Girls · Varsity · 2023-09-01 · CA

Course difficulty: -0.033

Race-day weather: 76°F · wind 20 mph · humidity 67%

View full meet →

Team scores

Place Team Points 12345 67
1 Trabuco Hills (CA) 42 1 6 8 13 14 24 28
2 El Toro (CA) 68 4 11 15 18 20 22 23
3 Redondo Union (CA) 73 7 9 17 19 21 29 32
4 Santa Margarita (CA) 119 5 16 31 33 34 38 45
5 Portola (Irvine) (CA) 155 10 26 36 37 46 48 52
6 Newport Harbor (CA) 164 2 3 49 51 59
7 Northwood (CA) 167 12 35 39 40 41 50 54
8 Brea Olinda (CA) 188 25 30 43 44 47 57 61
9 Crean Lutheran (CA) 234 27 42 53 55 56 58 60

As scored by the meet.

Results

Place Athlete Grade School Time Rating Points
1 Holly Barker 11 Trabuco Hills (CA) 1 10:26.3 PR 142.3 1
2 Keaton Robar 11 Newport Harbor (CA) 1 11:01.8 PR 134.5 2
3 Marley McCullough 11 Newport Harbor (CA) 2 11:05.4 PR 133.8 3
4 Gweneth Williams 9 El Toro (CA) 1 11:10 PR 132.9 4
5 Alahna Thomas 10 Santa Margarita (CA) 1 11:14.5 PR 131.9 5
6 Skylar Watts I 10 Trabuco Hills (CA) 2 11:17.8 PR 131.3 6
7 Lyla Fedio 12 Redondo Union (CA) 1 11:18.1 PR 131.2 7
8 Millie Bayles 10 Trabuco Hills (CA) 3 11:18.8 PR 131.1 8
9 Alexandra Manss 10 Redondo Union (CA) 2 11:22.8 PR 130.3 9
10 Sophie Guilfoile 11 Portola (Irvine) (CA) 1 11:40.5 PR 127.0 10
11 Lucy Varela 11 El Toro (CA) 2 11:42.5 PR 126.6 11
12 Sharice Laygo 12 Northwood (WA) 1 11:43.9 PR 126.4 12
13 Kahli Dugan 11 Trabuco Hills (CA) 4 11:44.1 PR 126.3 13
14 Anna Desormeau 10 Trabuco Hills (CA) 5 11:44.5 PR 126.3 14
15 Dakota Danaher 11 El Toro (CA) 3 11:47.5 PR 125.7 15
16 Riley Szuba 10 Santa Margarita (CA) 2 11:51.4 PR 125.0 16
17 Paula Valenzuela 11 Redondo Union (CA) 3 11:53.6 PR 124.6 17
18 Leilani Vivaldo 12 El Toro (CA) 4 12:05.5 PR 122.6 18
19 Devyn Townsend 11 Redondo Union (CA) 4 12:07.2 PR 122.3 19
20 Sara Johnson 11 El Toro (CA) 5 12:07.7 PR 122.2 20
21 Jenna MacLennan 12 Redondo Union (CA) 5 12:09.9 PR 121.8 21
22 Evelyn Gonzalez 12 El Toro (CA) 6 12:11.3 PR 121.6 22
23 Kathy Rivera 12 El Toro (CA) 7 12:16 PR 120.8 23
24 Kiarra Stewart 12 Trabuco Hills (CA) 6 12:16.7 SR 120.7 24
25 Roma Patel 12 Brea Olinda (CA) 1 12:18 PR 120.5 25
26 Ella Bailey 10 Portola (Irvine) (CA) 2 12:18.6 PR 120.4 26
27 Gwendy Mo 10 Crean Lutheran (CA) 1 12:19.5 PR 120.2 27
28 Jordan Lee 12 Trabuco Hills (CA) 7 12:21.9 SR 119.8 28
29 Lauren Strazzeri 12 Redondo Union (CA) 6 12:23.1 PR 119.6 29
30 Hailee Martin 10 Brea Olinda (CA) 2 12:28.8 PR 118.7 30
31 Caroline Arth 12 Santa Margarita (CA) 3 12:29.9 PR 118.5 31
32 Tessa Coert 12 Redondo Union (CA) 7 12:35.3 PR 117.7 32
33 Kailee Truong 12 Santa Margarita (CA) 4 12:45 PR 116.1 33
34 Kate Ekizian 11 Santa Margarita (CA) 5 12:48.1 PR 115.7 34
35 Elizabeth Odom 12 Northwood (WA) 2 12:49.7 PR 115.4 35
36 Lena Cho 12 Portola (Irvine) (CA) 3 12:49.8 PR 115.4 36
37 Danica Wood 11 Portola (Irvine) (CA) 4 12:50.8 PR 115.3 37
38 Sophia Quan 11 Redondo Union (CA) 8 12:56.4 PR 114.4
39 Lauren Temple 10 Santa Margarita (CA) 6 12:59.1 PR 114.0 38
40 Maia Murthy 9 Northwood (WA) 3 13:02.3 PR 113.6 39
41 Jasmine Mafi 12 Northwood (WA) 4 13:03.6 PR 113.4 40
42 Charlotte Collins-Williams 9 Northwood (WA) 5 13:04.3 PR 113.3 41
43 Addison Bremmer 12 Crean Lutheran (CA) 2 13:06 PR 113.0 42
44 Elisa Torres 11 Brea Olinda (CA) 3 13:06 PR 113.0 43
45 Sarah Garrigue 10 Brea Olinda (CA) 4 13:07.3 PR 112.8 44
46 Kelly Dodson 12 Santa Margarita (CA) 7 13:07.6 PR 112.8 45
47 Isabelle Guilfoile 10 Portola (Irvine) (CA) 5 13:08.8 PR 112.6 46
48 Sierra Sneddon 10 Brea Olinda (CA) 5 13:14.1 PR 111.8 47
49 Lillian Campbell 10 Portola (Irvine) (CA) 6 13:16.7 PR 111.5 48
50 Addison Goldwasser 11 Newport Harbor (CA) 3 13:17.5 PR 111.4 49
51 Christine Nam 11 Northwood (WA) 6 13:50.5 PR 106.9 50
52 Elizabeth Janda 12 Newport Harbor (CA) 4 14:00.1 PR 105.7 51
53 Elise Ngo 12 Portola (Irvine) (CA) 7 14:04.3 SR 105.1 52
54 Adelaide Hare 10 Crean Lutheran (CA) 3 14:07.1 PR 104.8 53
55 Wren Jakubiec 12 Northwood (WA) 7 14:07.5 SR 104.7 54
56 Sydney Canett 9 Crean Lutheran (CA) 4 14:08.1 PR 104.6 55
57 Alexis Landrus 9 Crean Lutheran (CA) 5 14:14.8 PR 103.8 56
58 Angela Russo 11 Santa Margarita (CA) 8 14:21.1 PR 103.0
59 Amelia Allred 10 Brea Olinda (CA) 6 14:33.5 PR 101.6 57
60 Grace McGuff 11 Crean Lutheran (CA) 6 14:39.8 PR 100.8 58
61 Angelina Maradiaga 9 Newport Harbor (CA) 5 14:59.5 PR 98.6 59
62 Ava Booy 11 Crean Lutheran (CA) 7 15:04.8 PR 98.0 60
63 Mikayla Brent 11 Brea Olinda (CA) 7 15:42 PR 94.1 61
64 Caroline Hoppe 11 Crean Lutheran (CA) 8 16:06.7 PR 91.7
Something wrong on this page? Report it →